Aeroporto :
LOGIN :

Iscrizione | Disclaimer

   EN    FR    IT 

 










Sommario :    VFR   VFR Marginale   IFR   IFR Intensivo   IFR Molto Intensivo
Visibilità : 
Base nubi : 
>= 8 km
>= 3000ft
5 / 8 km
1000 / 3000 ft
1500m / 5 km
500 / 1000 ft
800 / 1500m
200 / 500 ft
< 800m
< 200 ft
Simboli :   Temporali  Nebbia  Neve Forte  Precipitazioni Forti  Vento > 20 kt
SIGMETs :   Varie  Temporali  Ghiacco  Turbolenza  Onda orograficha  Ceneri Vulcaniche







- Altitudine del aeroporto : 885 ft
- Codice IATA : BAS
- Carte del aeroporto


LFSB - Bale-Mulhouse

ULTIMO METAR :
  • 200030Z AUTO 17004KT CAVOK 17/15 Q1021 NOSIG

METARs OBSOLETI :
  • 200000Z AUTO 17005KT CAVOK 17/15 Q1021 NOSIG
  • 192330Z AUTO 17004KT CAVOK 17/14 Q1021 NOSIG
  • 192300Z AUTO 20003KT CAVOK 17/14 Q1021 NOSIG
  • 192230Z AUTO VRB03KT CAVOK 17/15 Q1021 NOSIG
  • 192200Z 18004KT CAVOK 18/15 Q1021 NOSIG

TAF TAF LFSB
Valido dal 20 a 00 ore il 21 a 00 ore UTC


192300Z 2000/2024 17003KT CAVOK
PROB40
TEMPO 2010/2018 FEW065CB
Met : +33 3 89 90 31 11
Nessun NOTAM noto per questo aeroporto.



MetMap, La meteo Aeronautica in un colpo d'occhio ! - Copyright ORBIFLY Dicembre 2007 - Disclaimer

ORBIFLY MET'MAP TEAM :

Programmazione e sviluppo : Alexandra Zaïnal
Concezione e sviluppo : Baudouin d'Aumeries
Co-Programmazione e sviluppo : Marc-Olivier Méhu
Supporto tecnico e logistico : Manuel Goepfert
Aiuto per la traduzione : Arnaldo La Scala

Contatto : metmap@orbifly.com




FONTI E CREDITI :

   NOAA